Time;durP1;ratioP1;P1;durP2;ratioP2;P2;SDS_P1;SDS_P2;PMS_P1;PMS_P2;Temp;Humidity;BMP_temperature;BMP_pressure;BME280_temperature;BME280_humidity;BME280_pressure;Samples;Min_cycle;Max_cycle;Signal;HPM_P1;HPM_P2
2022/10/11 00:05:18;;;;;;;3.53;1.67;;;;;;;13.52;77.06;100432.31;31275672;28;20069;-83
2022/10/11 00:20:20;;;;;;;5.77;1.47;;;;;;;13.70;74.13;100429.88;31319421;28;20091;-83
2022/10/11 00:35:22;;;;;;;4.50;1.50;;;;;;;13.90;74.30;100425.03;31334140;28;20060;-84
2022/10/11 00:50:26;;;;;;;3.90;1.97;;;;;;;13.87;71.79;100423.16;31274408;28;20549;-83
2022/10/11 01:05:30;;;;;;;2.50;1.40;;;;;;;13.87;72.09;100430.59;31342301;28;20053;-83
2022/10/11 01:20:48;;;;;;;1.90;1.43;;;;;;;13.86;69.29;100427.09;31355170;28;20045;-82
2022/10/11 01:36:11;;;;;;;1.93;1.37;;;;;;;13.81;67.64;100452.19;31328621;28;20044;-83
2022/10/11 01:51:14;;;;;;;2.83;1.40;;;;;;;13.84;69.83;100464.97;31337506;28;20076;-84
2022/10/11 02:06:31;;;;;;;2.60;1.53;;;;;;;13.77;69.50;100467.88;31291991;28;20060;-83
2022/10/11 02:21:37;;;;;;;2.50;1.57;;;;;;;13.72;66.18;100476.59;31355164;28;20048;-82
2022/10/11 02:36:48;;;;;;;3.77;1.43;;;;;;;13.69;67.27;100480.19;31311855;28;20064;-83
2022/10/11 02:51:50;;;;;;;2.80;1.23;;;;;;;13.67;67.19;100485.31;31364198;28;20739;-83
2022/10/11 03:06:52;;;;;;;3.13;1.47;;;;;;;13.66;66.95;100481.06;31300626;28;20053;-83
2022/10/11 03:21:54;;;;;;;11.90;4.33;;;;;;;13.64;67.76;100499.81;31386127;28;20045;-83
2022/10/11 03:36:55;;;;;;;3.60;2.50;;;;;;;13.57;66.69;100502.72;31326503;28;20044;-82
2022/10/11 03:51:57;;;;;;;2.70;1.40;;;;;;;13.48;68.02;100508.00;31341816;28;20049;-82
2022/10/11 04:06:59;;;;;;;10.50;4.37;;;;;;;13.37;66.85;100507.50;31305822;28;20048;-83
2022/10/11 04:22:01;;;;;;;3.73;1.40;;;;;;;13.20;66.93;100493.88;31278921;28;20044;-83
2022/10/11 04:37:03;;;;;;;2.60;1.47;;;;;;;13.21;67.37;100511.78;31320156;28;20056;-83
2022/10/11 04:52:05;;;;;;;3.80;1.63;;;;;;;13.74;64.97;100522.53;31297053;28;20103;-82
2022/10/11 05:07:07;;;;;;;3.30;1.47;;;;;;;14.24;61.76;100541.06;31305352;28;20491;-82
2022/10/11 05:22:09;;;;;;;3.03;1.70;;;;;;;14.51;59.64;100555.16;31328482;28;20095;-81
2022/10/11 05:37:10;;;;;;;5.90;1.30;;;;;;;15.04;58.30;100563.75;31332915;28;20060;-83
2022/10/11 05:52:12;;;;;;;2.20;1.63;;;;;;;16.73;52.10;100576.84;31317838;28;20053;-82
2022/10/11 06:07:14;;;;;;;7.33;5.00;;;;;;;18.15;47.52;100571.13;31342922;28;20057;-81
2022/10/11 06:22:17;;;;;;;2.70;1.20;;;;;;;18.22;46.88;100581.78;31321850;28;20045;-83
2022/10/11 06:37:19;;;;;;;2.50;1.50;;;;;;;19.08;45.31;100601.50;31346682;28;20079;-82
2022/10/11 06:52:20;;;;;;;2.57;1.60;;;;;;;19.05;45.15;100603.19;31313608;28;20091;-83
2022/10/11 07:07:23;;;;;;;4.07;1.43;;;;;;;19.65;44.60;100609.81;31331971;28;20529;-82
2022/10/11 07:22:24;;;;;;;3.07;1.47;;;;;;;21.08;42.33;100617.75;31310107;28;20411;-83
2022/10/11 07:37:26;;;;;;;2.00;1.70;;;;;;;21.08;42.24;100620.50;31327844;28;20049;-82
2022/10/11 07:52:34;;;;;;;18.33;9.80;;;;;;;21.94;40.49;100619.22;31321564;28;20049;-81
2022/10/11 08:07:36;;;;;;;51.25;23.45;;;;;;;22.89;38.67;100598.84;31322371;28;20111;-81
2022/10/11 08:22:38;;;;;;;3.35;2.08;;;;;;;23.42;38.78;100614.81;31340080;28;20049;-81
2022/10/11 08:37:44;;;;;;;22.02;14.68;;;;;;;22.95;40.14;100619.03;31369660;28;20060;-81
2022/10/11 08:53:39;;;;;;;2.60;1.60;;;;;;;24.06;37.62;100615.41;31344858;28;20131;-83
2022/10/11 09:08:55;;;;;;;6.32;1.40;;;;;;;24.25;37.12;100632.38;31328239;28;20060;-82
2022/10/11 09:24:20;;;;;;;2.45;1.48;;;;;;;24.94;36.01;100638.25;31331146;28;20041;-83
2022/10/11 09:39:40;;;;;;;;;;;;;;;25.09;35.92;100619.34;31351036;28;20111;-81
2022/10/11 09:54:45;;;;;;;5.18;1.58;;;;;;;25.60;35.78;100620.00;31332116;28;19921;-82
2022/10/11 10:10:52;;;;;;;;;;;;;;;;;;;;;
2022/10/11 10:26:21;;;;;;;5.55;2.28;;;;;;;22.52;40.24;100625.66;31333935;28;20049;-82
2022/10/11 10:41:23;;;;;;;5.67;1.60;;;;;;;23.57;38.64;100627.78;31332981;28;20417;-86
2022/10/11 10:56:39;;;;;;;3.25;1.27;;;;;;;24.81;36.18;100628.41;31342075;28;20088;-82
2022/10/11 11:11:52;;;;;;;3.17;1.55;;;;;;;23.98;38.21;100622.66;31326368;28;20461;-83
2022/10/11 11:27:05;;;;;;;1.95;1.30;;;;;;;23.91;37.64;100618.34;31313201;28;20072;-84
2022/10/11 11:42:14;;;;;;;3.47;0.90;;;;;;;23.74;37.63;100628.63;31345171;28;20076;-82
2022/10/11 11:58:03;;;;;;;2.20;1.00;;;;;;;24.63;35.70;100623.34;31327210;28;20071;-83
2022/10/11 12:13:20;;;;;;;2.42;1.50;;;;;;;22.35;40.84;100622.72;31316312;28;20419;-84
2022/10/11 12:28:40;;;;;;;27.33;16.70;;;;;;;21.04;43.51;100620.69;31324893;28;20076;-83
2022/10/11 12:43:48;;;;;;;8.07;4.80;;;;;;;20.52;44.50;100627.84;31322690;28;20073;-84
2022/10/11 12:59:01;;;;;;;2.97;1.83;;;;;;;20.09;45.52;100632.75;31323765;28;20049;-84
2022/10/11 13:14:10;;;;;;;2.13;1.30;;;;;;;19.82;46.68;100635.72;31339766;28;20045;-83
2022/10/11 13:29:31;;;;;;;1.85;1.27;;;;;;;19.72;47.58;100632.25;31315274;28;20048;-84
2022/10/11 13:44:36;;;;;;;5.90;2.67;;;;;;;19.51;48.04;100646.31;31329562;28;20560;-83
2022/10/11 13:59:42;;;;;;;4.85;2.22;;;;;;;19.28;49.22;100654.03;31330300;28;20057;-83
2022/10/11 14:14:46;;;;;;;4.73;1.77;;;;;;;18.97;49.86;100656.25;31346748;28;20049;-82
2022/10/11 14:29:48;;;;;;;4.17;2.40;;;;;;;18.55;51.38;100664.41;31353849;28;20056;-83
2022/10/11 14:45:10;;;;;;;6.37;2.80;;;;;;;18.34;52.10;100677.06;31319839;28;20084;-83
2022/10/11 15:00:16;;;;;;;3.17;2.03;;;;;;;17.90;53.78;100699.31;31337394;28;20053;-83
2022/10/11 15:15:22;;;;;;;6.40;3.27;;;;;;;17.63;54.27;100707.41;31334546;28;20086;-83
2022/10/11 15:30:29;;;;;;;3.63;1.77;;;;;;;17.37;54.77;100729.56;31321277;28;20049;-82
2022/10/11 15:45:34;;;;;;;7.17;2.20;;;;;;;17.22;55.25;100741.53;31321940;28;20079;-82
2022/10/11 16:00:36;;;;;;;4.40;2.27;;;;;;;17.01;55.52;100745.78;31321174;28;20053;-85
2022/10/11 16:15:39;;;;;;;16.13;8.47;;;;;;;16.91;55.25;100757.94;31314828;28;20507;-83
2022/10/11 16:30:42;;;;;;;2.97;1.63;;;;;;;16.79;54.75;100772.44;31304379;28;20049;-83
2022/10/11 16:45:44;;;;;;;5.20;2.40;;;;;;;16.65;55.78;100777.22;31321550;28;20544;-83
2022/10/11 17:00:46;;;;;;;7.40;2.20;;;;;;;16.38;55.62;100769.47;31292135;28;20084;-83
2022/10/11 17:15:49;;;;;;;13.83;6.63;;;;;;;16.16;55.12;100776.06;31334467;28;20049;-82
2022/10/11 17:30:55;;;;;;;16.97;8.57;;;;;;;15.93;54.77;100786.16;31295181;28;20106;-84
2022/10/11 17:45:59;;;;;;;3.63;2.13;;;;;;;15.67;53.70;100785.38;31349625;28;20060;-84
2022/10/11 18:01:04;;;;;;;2.67;1.50;;;;;;;15.58;52.55;100787.25;31351473;28;20114;-83
2022/10/11 18:16:08;;;;;;;3.97;1.90;;;;;;;15.41;52.23;100805.66;31328256;28;20498;-82
2022/10/11 18:31:14;;;;;;;6.33;3.43;;;;;;;15.07;51.70;100797.25;31362246;28;20045;-83
2022/10/11 18:46:17;;;;;;;5.87;1.80;;;;;;;14.79;51.16;100806.97;31323835;28;20052;-83
2022/10/11 19:01:24;;;;;;;3.77;1.70;;;;;;;14.63;51.76;100802.31;31342810;28;20395;-84
2022/10/11 19:16:28;;;;;;;3.23;1.83;;;;;;;14.39;51.56;100809.91;31298036;28;20056;-84
2022/10/11 19:31:32;;;;;;;4.13;2.10;;;;;;;14.25;51.48;100818.41;31308280;28;20057;-82
2022/10/11 19:46:34;;;;;;;2.13;1.30;;;;;;;14.06;51.16;100830.94;31320182;28;21084;-86
2022/10/11 20:01:52;;;;;;;2.50;1.57;;;;;;;13.90;50.34;100826.22;31275673;28;20057;-84
2022/10/11 20:16:54;;;;;;;2.30;1.30;;;;;;;13.81;50.04;100820.56;31300551;28;20061;-83
2022/10/11 20:31:57;;;;;;;17.20;8.53;;;;;;;13.62;50.45;100810.44;31298732;28;20166;-83
2022/10/11 20:46:59;;;;;;;2.77;1.37;;;;;;;13.30;50.94;100817.31;31331739;28;20056;-84
2022/10/11 21:02:05;;;;;;;2.33;1.47;;;;;;;13.09;51.72;100820.41;31321775;28;20060;-83
2022/10/11 21:17:07;;;;;;;3.87;1.80;;;;;;;12.92;51.44;100826.97;31333405;28;20052;-83
2022/10/11 21:32:08;;;;;;;3.43;1.50;;;;;;;12.79;51.60;100824.06;31329050;28;20511;-83
2022/10/11 21:47:15;;;;;;;3.40;1.33;;;;;;;12.70;51.51;100826.56;31336849;28;20044;-84
2022/10/11 22:02:17;;;;;;;1.73;1.13;;;;;;;12.60;50.97;100839.16;31354797;28;20114;-83
2022/10/11 22:17:19;;;;;;;3.40;1.50;;;;;;;12.50;51.01;100856.47;31346705;28;20044;-83
2022/10/11 22:32:21;;;;;;;1.97;1.10;;;;;;;12.34;51.39;100859.03;31341542;28;20049;-84
2022/10/11 22:47:23;;;;;;;2.57;1.20;;;;;;;12.16;52.22;100863.97;31334159;28;20077;-84
2022/10/11 23:02:24;;;;;;;1.20;1.10;;;;;;;12.05;51.52;100866.03;31343294;28;20105;-84
2022/10/11 23:17:26;;;;;;;3.33;1.10;;;;;;;12.02;51.00;100875.06;31335849;28;20108;-84
2022/10/11 23:32:28;;;;;;;1.43;1.30;;;;;;;11.85;51.16;100872.13;31326760;28;20041;-83
2022/10/11 23:47:30;;;;;;;4.90;1.40;;;;;;;11.73;51.15;100875.38;31326137;28;20057;-82
